sensor_id;sensor_type;location;lat;lon;timestamp;temperature;humidity
9223;DHT22;7557;51.698;3.942;2024-01-10T00:00:37;-0.50;99.70
9223;DHT22;7557;51.698;3.942;2024-01-10T00:03:04;-0.50;99.60
9223;DHT22;7557;51.698;3.942;2024-01-10T00:05:33;-0.50;99.70
9223;DHT22;7557;51.698;3.942;2024-01-10T00:08:01;-0.50;99.30
9223;DHT22;7557;51.698;3.942;2024-01-10T00:10:28;-0.60;98.60
9223;DHT22;7557;51.698;3.942;2024-01-10T00:12:56;-0.80;98.40
9223;DHT22;7557;51.698;3.942;2024-01-10T00:15:23;-0.90;98.30
9223;DHT22;7557;51.698;3.942;2024-01-10T00:17:50;-0.90;98.40
9223;DHT22;7557;51.698;3.942;2024-01-10T00:20:19;-1.00;98.10
9223;DHT22;7557;51.698;3.942;2024-01-10T00:22:48;-1.00;98.30
9223;DHT22;7557;51.698;3.942;2024-01-10T00:25:15;-1.10;98.30
9223;DHT22;7557;51.698;3.942;2024-01-10T00:27:43;-1.10;98.60
9223;DHT22;7557;51.698;3.942;2024-01-10T00:30:11;-1.20;97.90
9223;DHT22;7557;51.698;3.942;2024-01-10T00:32:38;-1.30;98.00
9223;DHT22;7557;51.698;3.942;2024-01-10T00:35:06;-1.30;98.20
9223;DHT22;7557;51.698;3.942;2024-01-10T00:37:33;-1.30;98.30
9223;DHT22;7557;51.698;3.942;2024-01-10T00:40:02;-1.30;98.10
9223;DHT22;7557;51.698;3.942;2024-01-10T00:42:30;-1.30;98.20
9223;DHT22;7557;51.698;3.942;2024-01-10T00:44:57;-1.30;98.10
9223;DHT22;7557;51.698;3.942;2024-01-10T00:47:25;-1.30;98.20
9223;DHT22;7557;51.698;3.942;2024-01-10T00:49:52;-1.20;98.20
9223;DHT22;7557;51.698;3.942;2024-01-10T00:52:19;-1.20;98.40
9223;DHT22;7557;51.698;3.942;2024-01-10T00:54:47;-1.20;98.40
9223;DHT22;7557;51.698;3.942;2024-01-10T00:57:16;-1.20;98.70
9223;DHT22;7557;51.698;3.942;2024-01-10T00:59:43;-1.20;98.40
9223;DHT22;7557;51.698;3.942;2024-01-10T01:02:11;-1.30;98.30
9223;DHT22;7557;51.698;3.942;2024-01-10T01:04:38;-1.30;98.50
9223;DHT22;7557;51.698;3.942;2024-01-10T01:07:06;-1.20;98.70
9223;DHT22;7557;51.698;3.942;2024-01-10T01:09:34;-1.10;98.80
9223;DHT22;7557;51.698;3.942;2024-01-10T01:12:01;-1.10;99.00
9223;DHT22;7557;51.698;3.942;2024-01-10T01:14:31;-1.00;98.70
9223;DHT22;7557;51.698;3.942;2024-01-10T01:16:59;-1.00;99.00
9223;DHT22;7557;51.698;3.942;2024-01-10T01:19:26;-1.00;99.20
9223;DHT22;7557;51.698;3.942;2024-01-10T01:21:54;-1.00;99.20
9223;DHT22;7557;51.698;3.942;2024-01-10T01:24:22;-1.00;99.30
9223;DHT22;7557;51.698;3.942;2024-01-10T01:26:49;-1.00;99.30
9223;DHT22;7557;51.698;3.942;2024-01-10T01:29:16;-1.10;99.30
9223;DHT22;7557;51.698;3.942;2024-01-10T01:31:45;-1.20;99.30
9223;DHT22;7557;51.698;3.942;2024-01-10T01:34:13;-1.20;99.30
9223;DHT22;7557;51.698;3.942;2024-01-10T01:36:40;-1.30;99.30
9223;DHT22;7557;51.698;3.942;2024-01-10T01:39:11;-1.30;99.40
9223;DHT22;7557;51.698;3.942;2024-01-10T01:41:39;-1.40;99.40
9223;DHT22;7557;51.698;3.942;2024-01-10T01:44:07;-1.50;99.20
9223;DHT22;7557;51.698;3.942;2024-01-10T01:46:34;-1.40;99.40
9223;DHT22;7557;51.698;3.942;2024-01-10T01:49:04;-1.50;99.40
9223;DHT22;7557;51.698;3.942;2024-01-10T01:51:32;-1.50;99.40
9223;DHT22;7557;51.698;3.942;2024-01-10T01:54:03;-1.60;99.40
9223;DHT22;7557;51.698;3.942;2024-01-10T01:56:31;-1.70;99.30
9223;DHT22;7557;51.698;3.942;2024-01-10T01:58:59;-1.70;99.50
9223;DHT22;7557;51.698;3.942;2024-01-10T02:01:26;-1.70;99.70
9223;DHT22;7557;51.698;3.942;2024-01-10T02:03:53;-1.80;99.80
9223;DHT22;7557;51.698;3.942;2024-01-10T02:06:24;-1.70;99.40
9223;DHT22;7557;51.698;3.942;2024-01-10T02:08:51;-1.70;99.60
9223;DHT22;7557;51.698;3.942;2024-01-10T02:11:20;-1.70;99.50
9223;DHT22;7557;51.698;3.942;2024-01-10T02:13:48;-1.70;99.80
9223;DHT22;7557;51.698;3.942;2024-01-10T02:16:16;-1.70;99.70
9223;DHT22;7557;51.698;3.942;2024-01-10T02:18:43;-1.70;99.80
9223;DHT22;7557;51.698;3.942;2024-01-10T02:21:11;-1.70;99.70
9223;DHT22;7557;51.698;3.942;2024-01-10T02:23:40;-1.70;99.70
9223;DHT22;7557;51.698;3.942;2024-01-10T02:26:09;-1.70;99.60
9223;DHT22;7557;51.698;3.942;2024-01-10T02:28:37;-1.80;99.80
9223;DHT22;7557;51.698;3.942;2024-01-10T02:31:04;-1.80;99.90
9223;DHT22;7557;51.698;3.942;2024-01-10T02:33:32;-1.80;99.90
9223;DHT22;7557;51.698;3.942;2024-01-10T02:36:00;-1.70;99.90
9223;DHT22;7557;51.698;3.942;2024-01-10T02:38:27;-1.70;99.90
9223;DHT22;7557;51.698;3.942;2024-01-10T02:40:55;-1.70;99.90
9223;DHT22;7557;51.698;3.942;2024-01-10T02:43:24;-1.60;99.90
9223;DHT22;7557;51.698;3.942;2024-01-10T02:45:51;-1.60;99.90
9223;DHT22;7557;51.698;3.942;2024-01-10T02:48:19;-1.50;99.90
9223;DHT22;7557;51.698;3.942;2024-01-10T02:50:46;-1.60;99.90
9223;DHT22;7557;51.698;3.942;2024-01-10T02:53:14;-1.60;99.90
9223;DHT22;7557;51.698;3.942;2024-01-10T02:55:42;-1.60;99.90
9223;DHT22;7557;51.698;3.942;2024-01-10T02:58:12;-1.50;99.90
9223;DHT22;7557;51.698;3.942;2024-01-10T03:00:41;-1.50;99.90
9223;DHT22;7557;51.698;3.942;2024-01-10T03:03:09;-1.50;99.90
9223;DHT22;7557;51.698;3.942;2024-01-10T03:05:37;-1.50;99.90
9223;DHT22;7557;51.698;3.942;2024-01-10T03:08:06;-1.60;99.90
9223;DHT22;7557;51.698;3.942;2024-01-10T03:10:33;-1.60;99.90
9223;DHT22;7557;51.698;3.942;2024-01-10T03:13:01;-1.50;99.90
9223;DHT22;7557;51.698;3.942;2024-01-10T03:15:28;-1.60;99.90
9223;DHT22;7557;51.698;3.942;2024-01-10T03:17:58;-1.50;99.90
9223;DHT22;7557;51.698;3.942;2024-01-10T03:20:25;-1.50;99.90
9223;DHT22;7557;51.698;3.942;2024-01-10T03:22:53;-1.50;99.90
9223;DHT22;7557;51.698;3.942;2024-01-10T03:25:21;-1.40;99.90
9223;DHT22;7557;51.698;3.942;2024-01-10T03:27:48;-1.40;99.90
9223;DHT22;7557;51.698;3.942;2024-01-10T03:30:16;-1.30;99.90
9223;DHT22;7557;51.698;3.942;2024-01-10T03:32:45;-1.30;99.90
9223;DHT22;7557;51.698;3.942;2024-01-10T03:35:14;-1.20;99.90
9223;DHT22;7557;51.698;3.942;2024-01-10T03:37:42;-1.10;99.90
9223;DHT22;7557;51.698;3.942;2024-01-10T03:40:10;-1.10;99.90
9223;DHT22;7557;51.698;3.942;2024-01-10T03:42:38;-1.00;99.90
9223;DHT22;7557;51.698;3.942;2024-01-10T03:45:06;-1.00;99.90
9223;DHT22;7557;51.698;3.942;2024-01-10T03:47:33;-1.00;99.90
9223;DHT22;7557;51.698;3.942;2024-01-10T03:50:01;-1.00;99.90
9223;DHT22;7557;51.698;3.942;2024-01-10T03:52:30;-1.10;99.90
9223;DHT22;7557;51.698;3.942;2024-01-10T03:54:57;-1.10;99.90
9223;DHT22;7557;51.698;3.942;2024-01-10T03:57:25;-1.10;99.90
9223;DHT22;7557;51.698;3.942;2024-01-10T03:59:55;-1.30;99.90
9223;DHT22;7557;51.698;3.942;2024-01-10T04:02:22;-1.40;99.90
9223;DHT22;7557;51.698;3.942;2024-01-10T04:04:49;-1.50;99.90
9223;DHT22;7557;51.698;3.942;2024-01-10T04:07:17;-1.70;99.90
9223;DHT22;7557;51.698;3.942;2024-01-10T04:09:46;-1.70;99.90
9223;DHT22;7557;51.698;3.942;2024-01-10T04:12:13;-1.80;99.90
9223;DHT22;7557;51.698;3.942;2024-01-10T04:14:41;-1.70;99.90
9223;DHT22;7557;51.698;3.942;2024-01-10T04:17:08;-1.80;99.90
9223;DHT22;7557;51.698;3.942;2024-01-10T04:19:36;-1.80;99.90
9223;DHT22;7557;51.698;3.942;2024-01-10T04:22:03;-1.90;99.90
9223;DHT22;7557;51.698;3.942;2024-01-10T04:24:31;-1.90;99.90
9223;DHT22;7557;51.698;3.942;2024-01-10T04:27:00;-1.80;99.90
9223;DHT22;7557;51.698;3.942;2024-01-10T04:29:27;-1.80;99.90
9223;DHT22;7557;51.698;3.942;2024-01-10T04:31:55;-1.70;99.90
9223;DHT22;7557;51.698;3.942;2024-01-10T04:34:22;-1.50;99.90
9223;DHT22;7557;51.698;3.942;2024-01-10T04:36:50;-1.50;99.90
9223;DHT22;7557;51.698;3.942;2024-01-10T04:39:18;-1.30;99.90
9223;DHT22;7557;51.698;3.942;2024-01-10T04:41:45;-1.20;99.90
9223;DHT22;7557;51.698;3.942;2024-01-10T04:44:14;-1.30;99.90
9223;DHT22;7557;51.698;3.942;2024-01-10T04:46:42;-1.30;99.90
9223;DHT22;7557;51.698;3.942;2024-01-10T04:49:11;-1.30;99.90
9223;DHT22;7557;51.698;3.942;2024-01-10T04:51:39;-1.30;99.90
9223;DHT22;7557;51.698;3.942;2024-01-10T04:54:07;-1.30;99.90
9223;DHT22;7557;51.698;3.942;2024-01-10T04:56:34;-1.50;99.90
9223;DHT22;7557;51.698;3.942;2024-01-10T04:59:03;-1.50;99.90
9223;DHT22;7557;51.698;3.942;2024-01-10T05:01:32;-1.50;99.90
9223;DHT22;7557;51.698;3.942;2024-01-10T05:03:59;-1.50;99.90
9223;DHT22;7557;51.698;3.942;2024-01-10T05:06:27;-1.60;99.90
9223;DHT22;7557;51.698;3.942;2024-01-10T05:08:54;-1.60;99.90
9223;DHT22;7557;51.698;3.942;2024-01-10T05:11:24;-1.70;99.90
9223;DHT22;7557;51.698;3.942;2024-01-10T05:13:52;-1.70;99.90
9223;DHT22;7557;51.698;3.942;2024-01-10T05:16:19;-1.80;99.90
9223;DHT22;7557;51.698;3.942;2024-01-10T05:18:49;-1.90;99.90
9223;DHT22;7557;51.698;3.942;2024-01-10T05:21:16;-1.90;99.90
9223;DHT22;7557;51.698;3.942;2024-01-10T05:23:44;-1.80;99.90
9223;DHT22;7557;51.698;3.942;2024-01-10T05:26:12;-1.70;99.90
9223;DHT22;7557;51.698;3.942;2024-01-10T05:28:38;-1.80;99.90
9223;DHT22;7557;51.698;3.942;2024-01-10T05:31:06;-1.80;99.90
9223;DHT22;7557;51.698;3.942;2024-01-10T05:33:33;-1.80;99.90
9223;DHT22;7557;51.698;3.942;2024-01-10T05:36:03;-1.80;99.90
9223;DHT22;7557;51.698;3.942;2024-01-10T05:38:30;-1.90;99.90
9223;DHT22;7557;51.698;3.942;2024-01-10T05:40:58;-2.00;99.90
9223;DHT22;7557;51.698;3.942;2024-01-10T05:43:25;-2.00;99.90
9223;DHT22;7557;51.698;3.942;2024-01-10T05:45:53;-2.00;99.90
9223;DHT22;7557;51.698;3.942;2024-01-10T05:48:21;-2.00;99.90
9223;DHT22;7557;51.698;3.942;2024-01-10T05:50:48;-1.90;99.90
9223;DHT22;7557;51.698;3.942;2024-01-10T05:53:18;-1.80;99.90
9223;DHT22;7557;51.698;3.942;2024-01-10T05:55:45;-1.70;99.90
9223;DHT22;7557;51.698;3.942;2024-01-10T05:58:13;-1.80;99.90
9223;DHT22;7557;51.698;3.942;2024-01-10T06:00:40;-1.80;99.90
9223;DHT22;7557;51.698;3.942;2024-01-10T06:03:08;-1.90;99.90
9223;DHT22;7557;51.698;3.942;2024-01-10T06:05:35;-2.00;99.90
9223;DHT22;7557;51.698;3.942;2024-01-10T06:08:03;-2.10;99.90
9223;DHT22;7557;51.698;3.942;2024-01-10T06:10:33;-2.20;99.90
9223;DHT22;7557;51.698;3.942;2024-01-10T06:13:00;-2.20;99.90
9223;DHT22;7557;51.698;3.942;2024-01-10T06:15:31;-2.20;99.90
9223;DHT22;7557;51.698;3.942;2024-01-10T06:17:58;-2.20;99.90
9223;DHT22;7557;51.698;3.942;2024-01-10T06:20:25;-2.10;99.90
9223;DHT22;7557;51.698;3.942;2024-01-10T06:22:54;-2.20;99.90
9223;DHT22;7557;51.698;3.942;2024-01-10T06:25:22;-2.10;99.90
9223;DHT22;7557;51.698;3.942;2024-01-10T06:27:50;-2.00;99.90
9223;DHT22;7557;51.698;3.942;2024-01-10T06:30:18;-2.00;99.90
9223;DHT22;7557;51.698;3.942;2024-01-10T06:32:45;-2.10;99.90
9223;DHT22;7557;51.698;3.942;2024-01-10T06:35:13;-2.10;99.90
9223;DHT22;7557;51.698;3.942;2024-01-10T06:37:40;-2.20;99.90
9223;DHT22;7557;51.698;3.942;2024-01-10T06:40:13;-2.20;99.90
9223;DHT22;7557;51.698;3.942;2024-01-10T06:42:41;-2.30;99.90
9223;DHT22;7557;51.698;3.942;2024-01-10T06:45:25;-2.30;99.90
9223;DHT22;7557;51.698;3.942;2024-01-10T06:47:53;-2.20;99.90
9223;DHT22;7557;51.698;3.942;2024-01-10T06:50:20;-2.30;99.90
9223;DHT22;7557;51.698;3.942;2024-01-10T06:52:49;-2.10;99.90
9223;DHT22;7557;51.698;3.942;2024-01-10T06:55:17;-2.10;99.90
9223;DHT22;7557;51.698;3.942;2024-01-10T06:57:45;-1.90;99.90
9223;DHT22;7557;51.698;3.942;2024-01-10T07:00:14;-1.90;99.90
9223;DHT22;7557;51.698;3.942;2024-01-10T07:02:45;-1.90;99.90
9223;DHT22;7557;51.698;3.942;2024-01-10T07:05:14;-1.80;99.90
9223;DHT22;7557;51.698;3.942;2024-01-10T07:07:42;-1.80;99.90
9223;DHT22;7557;51.698;3.942;2024-01-10T07:10:10;-1.90;99.90
9223;DHT22;7557;51.698;3.942;2024-01-10T07:12:37;-1.80;99.90
9223;DHT22;7557;51.698;3.942;2024-01-10T07:15:06;-2.00;99.90
9223;DHT22;7557;51.698;3.942;2024-01-10T07:17:34;-1.90;99.90
9223;DHT22;7557;51.698;3.942;2024-01-10T07:20:04;-2.00;99.90
9223;DHT22;7557;51.698;3.942;2024-01-10T07:22:33;-2.00;99.90
9223;DHT22;7557;51.698;3.942;2024-01-10T07:25:00;-2.10;99.90
9223;DHT22;7557;51.698;3.942;2024-01-10T07:27:28;-2.20;99.90
9223;DHT22;7557;51.698;3.942;2024-01-10T07:29:56;-2.30;99.90
9223;DHT22;7557;51.698;3.942;2024-01-10T07:32:24;-2.30;99.90
9223;DHT22;7557;51.698;3.942;2024-01-10T07:34:51;-2.40;99.90
9223;DHT22;7557;51.698;3.942;2024-01-10T07:37:20;-2.30;99.90
9223;DHT22;7557;51.698;3.942;2024-01-10T07:39:48;-2.30;99.90
9223;DHT22;7557;51.698;3.942;2024-01-10T07:42:16;-2.30;99.90
9223;DHT22;7557;51.698;3.942;2024-01-10T07:44:44;-2.30;99.90
9223;DHT22;7557;51.698;3.942;2024-01-10T07:47:12;-2.30;99.90
9223;DHT22;7557;51.698;3.942;2024-01-10T07:49:39;-2.20;99.90
9223;DHT22;7557;51.698;3.942;2024-01-10T07:52:09;-2.10;99.90
9223;DHT22;7557;51.698;3.942;2024-01-10T07:54:38;-2.10;99.90
9223;DHT22;7557;51.698;3.942;2024-01-10T07:57:05;-2.20;99.90
9223;DHT22;7557;51.698;3.942;2024-01-10T07:59:33;-2.20;99.90
9223;DHT22;7557;51.698;3.942;2024-01-10T08:02:00;-2.10;99.90
9223;DHT22;7557;51.698;3.942;2024-01-10T08:04:28;-2.20;99.90
9223;DHT22;7557;51.698;3.942;2024-01-10T08:06:56;-2.30;99.90
9223;DHT22;7557;51.698;3.942;2024-01-10T08:09:26;-2.40;99.90
9223;DHT22;7557;51.698;3.942;2024-01-10T08:11:55;-2.30;99.90
9223;DHT22;7557;51.698;3.942;2024-01-10T08:14:23;-2.30;99.90
9223;DHT22;7557;51.698;3.942;2024-01-10T08:16:50;-2.40;99.90
9223;DHT22;7557;51.698;3.942;2024-01-10T08:19:19;-2.40;99.90
9223;DHT22;7557;51.698;3.942;2024-01-10T08:21:46;-2.40;99.90
9223;DHT22;7557;51.698;3.942;2024-01-10T08:24:14;-2.40;99.90
9223;DHT22;7557;51.698;3.942;2024-01-10T08:26:44;-2.30;99.90
9223;DHT22;7557;51.698;3.942;2024-01-10T08:29:13;-2.30;99.90
9223;DHT22;7557;51.698;3.942;2024-01-10T08:31:41;-2.30;99.90
9223;DHT22;7557;51.698;3.942;2024-01-10T08:34:08;-2.20;99.90
9223;DHT22;7557;51.698;3.942;2024-01-10T08:36:35;-2.20;99.90
9223;DHT22;7557;51.698;3.942;2024-01-10T08:39:05;-2.10;99.90
9223;DHT22;7557;51.698;3.942;2024-01-10T08:41:33;-2.10;99.90
9223;DHT22;7557;51.698;3.942;2024-01-10T08:44:02;-2.00;99.90
9223;DHT22;7557;51.698;3.942;2024-01-10T08:46:32;-2.00;99.90
9223;DHT22;7557;51.698;3.942;2024-01-10T08:48:59;-2.00;99.90
9223;DHT22;7557;51.698;3.942;2024-01-10T08:51:26;-1.90;99.90
9223;DHT22;7557;51.698;3.942;2024-01-10T08:53:54;-1.90;99.90
9223;DHT22;7557;51.698;3.942;2024-01-10T08:56:22;-1.80;99.90
9223;DHT22;7557;51.698;3.942;2024-01-10T08:58:50;-1.70;99.90
9223;DHT22;7557;51.698;3.942;2024-01-10T09:01:18;-1.60;99.90
9223;DHT22;7557;51.698;3.942;2024-01-10T09:03:47;-1.50;99.90
9223;DHT22;7557;51.698;3.942;2024-01-10T09:06:15;-1.30;99.90
9223;DHT22;7557;51.698;3.942;2024-01-10T09:08:43;-1.10;99.90
9223;DHT22;7557;51.698;3.942;2024-01-10T09:11:10;-0.90;99.90
9223;DHT22;7557;51.698;3.942;2024-01-10T09:13:38;-0.80;99.90
9223;DHT22;7557;51.698;3.942;2024-01-10T09:16:06;-0.70;99.90
9223;DHT22;7557;51.698;3.942;2024-01-10T09:18:33;-0.60;99.90
9223;DHT22;7557;51.698;3.942;2024-01-10T09:21:04;-0.50;99.90
9223;DHT22;7557;51.698;3.942;2024-01-10T09:23:31;-0.50;99.90
9223;DHT22;7557;51.698;3.942;2024-01-10T09:25:59;-0.50;99.90
9223;DHT22;7557;51.698;3.942;2024-01-10T09:28:26;-0.50;99.90
9223;DHT22;7557;51.698;3.942;2024-01-10T09:30:53;-0.50;99.90
9223;DHT22;7557;51.698;3.942;2024-01-10T09:33:21;-0.50;99.90
9223;DHT22;7557;51.698;3.942;2024-01-10T09:35:49;-0.40;99.90
9223;DHT22;7557;51.698;3.942;2024-01-10T09:38:18;-0.40;99.90
9223;DHT22;7557;51.698;3.942;2024-01-10T09:40:45;-0.50;99.90
9223;DHT22;7557;51.698;3.942;2024-01-10T09:43:13;-0.40;99.90
9223;DHT22;7557;51.698;3.942;2024-01-10T09:45:43;-0.40;99.90
9223;DHT22;7557;51.698;3.942;2024-01-10T09:48:14;-0.30;99.90
9223;DHT22;7557;51.698;3.942;2024-01-10T09:50:42;-0.20;99.90
9223;DHT22;7557;51.698;3.942;2024-01-10T09:53:14;-0.20;99.90
9223;DHT22;7557;51.698;3.942;2024-01-10T09:55:46;-0.20;99.90
9223;DHT22;7557;51.698;3.942;2024-01-10T09:58:14;-0.20;99.90
9223;DHT22;7557;51.698;3.942;2024-01-10T10:00:41;-0.20;99.90
9223;DHT22;7557;51.698;3.942;2024-01-10T10:03:09;-0.10;99.90
9223;DHT22;7557;51.698;3.942;2024-01-10T10:05:38;0.00;99.90
9223;DHT22;7557;51.698;3.942;2024-01-10T10:08:09;0.00;99.90
9223;DHT22;7557;51.698;3.942;2024-01-10T10:10:37;0.10;99.90
9223;DHT22;7557;51.698;3.942;2024-01-10T10:13:23;0.20;99.90
9223;DHT22;7557;51.698;3.942;2024-01-10T10:15:58;0.20;99.90
9223;DHT22;7557;51.698;3.942;2024-01-10T10:18:29;0.20;99.90
9223;DHT22;7557;51.698;3.942;2024-01-10T10:21:15;0.30;99.90
9223;DHT22;7557;51.698;3.942;2024-01-10T10:23:57;0.50;99.90
9223;DHT22;7557;51.698;3.942;2024-01-10T10:26:27;0.60;99.90
9223;DHT22;7557;51.698;3.942;2024-01-10T10:28:56;0.70;99.90
9223;DHT22;7557;51.698;3.942;2024-01-10T10:31:24;0.70;99.90
9223;DHT22;7557;51.698;3.942;2024-01-10T10:33:52;0.80;99.90
9223;DHT22;7557;51.698;3.942;2024-01-10T10:36:21;0.90;99.90
9223;DHT22;7557;51.698;3.942;2024-01-10T10:38:49;1.00;99.90
9223;DHT22;7557;51.698;3.942;2024-01-10T10:41:18;1.00;99.90
9223;DHT22;7557;51.698;3.942;2024-01-10T10:43:47;1.20;99.90
9223;DHT22;7557;51.698;3.942;2024-01-10T10:46:20;1.30;99.90
9223;DHT22;7557;51.698;3.942;2024-01-10T10:48:50;1.30;99.90
9223;DHT22;7557;51.698;3.942;2024-01-10T10:51:28;1.40;99.90
9223;DHT22;7557;51.698;3.942;2024-01-10T10:54:00;1.50;99.90
9223;DHT22;7557;51.698;3.942;2024-01-10T10:56:30;1.50;99.90
9223;DHT22;7557;51.698;3.942;2024-01-10T10:58:58;1.40;99.90
9223;DHT22;7557;51.698;3.942;2024-01-10T11:01:29;1.40;99.90
9223;DHT22;7557;51.698;3.942;2024-01-10T11:03:58;1.40;99.90
9223;DHT22;7557;51.698;3.942;2024-01-10T11:06:27;1.40;99.90
9223;DHT22;7557;51.698;3.942;2024-01-10T11:09:01;1.50;99.90
9223;DHT22;7557;51.698;3.942;2024-01-10T11:11:46;1.60;99.90
9223;DHT22;7557;51.698;3.942;2024-01-10T11:14:25;1.50;99.90
9223;DHT22;7557;51.698;3.942;2024-01-10T11:17:16;1.60;99.90
9223;DHT22;7557;51.698;3.942;2024-01-10T11:20:14;1.70;99.80
9223;DHT22;7557;51.698;3.942;2024-01-10T11:25:44;1.80;99.80
9223;DHT22;7557;51.698;3.942;2024-01-10T11:28:12;1.80;99.60
9223;DHT22;7557;51.698;3.942;2024-01-10T11:30:48;1.80;99.50
9223;DHT22;7557;51.698;3.942;2024-01-10T11:33:23;1.80;99.40
9223;DHT22;7557;51.698;3.942;2024-01-10T11:36:13;1.90;99.90
9223;DHT22;7557;51.698;3.942;2024-01-10T11:38:54;1.90;99.80
9223;DHT22;7557;51.698;3.942;2024-01-10T11:41:23;1.70;99.40
9223;DHT22;7557;51.698;3.942;2024-01-10T11:44:25;1.70;99.20
9223;DHT22;7557;51.698;3.942;2024-01-10T11:46:58;1.70;99.80
9223;DHT22;7557;51.698;3.942;2024-01-10T11:49:32;1.70;99.70
9223;DHT22;7557;51.698;3.942;2024-01-10T11:52:03;1.70;99.20
9223;DHT22;7557;51.698;3.942;2024-01-10T11:54:41;1.60;98.80
9223;DHT22;7557;51.698;3.942;2024-01-10T11:57:11;1.30;99.00
9223;DHT22;7557;51.698;3.942;2024-01-10T11:59:41;1.20;99.00
9223;DHT22;7557;51.698;3.942;2024-01-10T12:02:11;1.20;99.40
9223;DHT22;7557;51.698;3.942;2024-01-10T12:04:41;1.10;99.00
9223;DHT22;7557;51.698;3.942;2024-01-10T12:07:08;1.10;99.20
9223;DHT22;7557;51.698;3.942;2024-01-10T12:09:37;0.90;99.00
9223;DHT22;7557;51.698;3.942;2024-01-10T12:12:08;0.90;99.10
9223;DHT22;7557;51.698;3.942;2024-01-10T12:14:37;0.80;99.00
9223;DHT22;7557;51.698;3.942;2024-01-10T12:17:07;0.80;99.10
9223;DHT22;7557;51.698;3.942;2024-01-10T12:19:35;0.80;99.40
9223;DHT22;7557;51.698;3.942;2024-01-10T12:22:04;0.70;99.30
9223;DHT22;7557;51.698;3.942;2024-01-10T12:24:32;0.80;99.20
9223;DHT22;7557;51.698;3.942;2024-01-10T12:27:00;0.80;99.30
9223;DHT22;7557;51.698;3.942;2024-01-10T12:29:29;0.90;99.10
9223;DHT22;7557;51.698;3.942;2024-01-10T12:31:57;0.90;98.80
9223;DHT22;7557;51.698;3.942;2024-01-10T12:34:27;0.80;99.10
9223;DHT22;7557;51.698;3.942;2024-01-10T12:36:55;0.80;99.20
9223;DHT22;7557;51.698;3.942;2024-01-10T12:39:24;0.90;99.00
9223;DHT22;7557;51.698;3.942;2024-01-10T12:41:57;0.90;98.60
9223;DHT22;7557;51.698;3.942;2024-01-10T12:44:28;1.00;98.70
9223;DHT22;7557;51.698;3.942;2024-01-10T12:46:56;0.90;98.70
9223;DHT22;7557;51.698;3.942;2024-01-10T12:49:23;0.90;98.70
9223;DHT22;7557;51.698;3.942;2024-01-10T12:51:51;0.90;99.00
9223;DHT22;7557;51.698;3.942;2024-01-10T12:54:19;1.00;99.00
9223;DHT22;7557;51.698;3.942;2024-01-10T12:56:49;1.00;98.70
9223;DHT22;7557;51.698;3.942;2024-01-10T12:59:17;1.00;98.90
9223;DHT22;7557;51.698;3.942;2024-01-10T13:01:44;1.00;98.60
9223;DHT22;7557;51.698;3.942;2024-01-10T13:04:12;1.00;98.60
9223;DHT22;7557;51.698;3.942;2024-01-10T13:06:39;1.00;98.30
9223;DHT22;7557;51.698;3.942;2024-01-10T13:09:09;1.00;98.40
9223;DHT22;7557;51.698;3.942;2024-01-10T13:11:42;1.00;98.50
9223;DHT22;7557;51.698;3.942;2024-01-10T13:14:17;1.00;98.70
9223;DHT22;7557;51.698;3.942;2024-01-10T13:16:54;1.00;98.60
9223;DHT22;7557;51.698;3.942;2024-01-10T13:19:22;1.10;98.50
9223;DHT22;7557;51.698;3.942;2024-01-10T13:21:54;1.10;98.70
9223;DHT22;7557;51.698;3.942;2024-01-10T13:24:25;1.20;98.30
9223;DHT22;7557;51.698;3.942;2024-01-10T13:27:00;1.10;98.20
9223;DHT22;7557;51.698;3.942;2024-01-10T13:29:33;1.10;98.40
9223;DHT22;7557;51.698;3.942;2024-01-10T13:32:07;1.20;98.30
9223;DHT22;7557;51.698;3.942;2024-01-10T13:34:39;1.20;98.20
9223;DHT22;7557;51.698;3.942;2024-01-10T13:37:06;1.20;98.40
9223;DHT22;7557;51.698;3.942;2024-01-10T13:39:36;1.20;98.10
9223;DHT22;7557;51.698;3.942;2024-01-10T13:42:04;1.20;98.00
9223;DHT22;7557;51.698;3.942;2024-01-10T13:44:33;1.10;98.00
9223;DHT22;7557;51.698;3.942;2024-01-10T13:47:00;1.10;98.20
9223;DHT22;7557;51.698;3.942;2024-01-10T13:49:29;1.20;98.00
9223;DHT22;7557;51.698;3.942;2024-01-10T13:51:56;1.20;98.30
9223;DHT22;7557;51.698;3.942;2024-01-10T13:54:24;1.20;98.60
9223;DHT22;7557;51.698;3.942;2024-01-10T13:56:51;1.20;98.30
9223;DHT22;7557;51.698;3.942;2024-01-10T13:59:18;1.20;98.00
9223;DHT22;7557;51.698;3.942;2024-01-10T14:01:48;1.30;98.20
9223;DHT22;7557;51.698;3.942;2024-01-10T14:04:16;1.30;97.90
9223;DHT22;7557;51.698;3.942;2024-01-10T14:06:43;1.20;97.90
9223;DHT22;7557;51.698;3.942;2024-01-10T14:09:11;1.30;97.70
9223;DHT22;7557;51.698;3.942;2024-01-10T14:11:39;1.20;97.80
9223;DHT22;7557;51.698;3.942;2024-01-10T14:14:06;1.30;98.10
9223;DHT22;7557;51.698;3.942;2024-01-10T14:16:34;1.30;97.80
9223;DHT22;7557;51.698;3.942;2024-01-10T14:19:03;1.30;98.30
9223;DHT22;7557;51.698;3.942;2024-01-10T14:21:32;1.30;97.50
9223;DHT22;7557;51.698;3.942;2024-01-10T14:23:59;1.30;97.90
9223;DHT22;7557;51.698;3.942;2024-01-10T14:26:46;1.30;98.10
9223;DHT22;7557;51.698;3.942;2024-01-10T14:29:14;1.50;98.50
9223;DHT22;7557;51.698;3.942;2024-01-10T14:31:42;1.60;98.60
9223;DHT22;7557;51.698;3.942;2024-01-10T14:34:12;1.50;97.70
9223;DHT22;7557;51.698;3.942;2024-01-10T14:36:40;1.30;97.60
9223;DHT22;7557;51.698;3.942;2024-01-10T14:39:08;1.20;98.20
9223;DHT22;7557;51.698;3.942;2024-01-10T14:41:38;1.10;98.30
9223;DHT22;7557;51.698;3.942;2024-01-10T14:44:06;1.10;98.40
9223;DHT22;7557;51.698;3.942;2024-01-10T14:46:34;1.10;98.30
9223;DHT22;7557;51.698;3.942;2024-01-10T14:49:01;1.10;98.20
9223;DHT22;7557;51.698;3.942;2024-01-10T14:51:33;1.10;98.30
9223;DHT22;7557;51.698;3.942;2024-01-10T14:54:00;1.10;98.10
9223;DHT22;7557;51.698;3.942;2024-01-10T14:56:29;1.10;98.00
9223;DHT22;7557;51.698;3.942;2024-01-10T14:58:57;1.10;98.00
9223;DHT22;7557;51.698;3.942;2024-01-10T15:01:25;1.10;98.30
9223;DHT22;7557;51.698;3.942;2024-01-10T15:03:52;1.10;98.20
9223;DHT22;7557;51.698;3.942;2024-01-10T15:06:20;1.10;98.40
9223;DHT22;7557;51.698;3.942;2024-01-10T15:08:49;1.20;98.50
9223;DHT22;7557;51.698;3.942;2024-01-10T15:11:17;1.20;98.60
9223;DHT22;7557;51.698;3.942;2024-01-10T15:13:44;1.20;98.90
9223;DHT22;7557;51.698;3.942;2024-01-10T15:16:12;1.20;98.60
9223;DHT22;7557;51.698;3.942;2024-01-10T15:18:39;1.10;98.50
9223;DHT22;7557;51.698;3.942;2024-01-10T15:21:07;1.10;98.50
9223;DHT22;7557;51.698;3.942;2024-01-10T15:23:34;1.10;98.40
9223;DHT22;7557;51.698;3.942;2024-01-10T15:26:04;1.10;98.40
9223;DHT22;7557;51.698;3.942;2024-01-10T15:28:31;1.00;98.30
9223;DHT22;7557;51.698;3.942;2024-01-10T15:30:58;1.00;98.50
9223;DHT22;7557;51.698;3.942;2024-01-10T15:33:27;1.00;98.70
9223;DHT22;7557;51.698;3.942;2024-01-10T15:36:05;1.00;98.80
9223;DHT22;7557;51.698;3.942;2024-01-10T15:38:35;1.00;98.90
9223;DHT22;7557;51.698;3.942;2024-01-10T15:41:06;1.00;98.90
9223;DHT22;7557;51.698;3.942;2024-01-10T15:43:34;0.90;99.10
9223;DHT22;7557;51.698;3.942;2024-01-10T15:46:02;0.90;99.30
9223;DHT22;7557;51.698;3.942;2024-01-10T15:48:30;0.90;99.90
9223;DHT22;7557;51.698;3.942;2024-01-10T15:50:57;0.90;99.70
9223;DHT22;7557;51.698;3.942;2024-01-10T15:53:25;0.90;99.70
9223;DHT22;7557;51.698;3.942;2024-01-10T15:55:52;0.90;99.80
9223;DHT22;7557;51.698;3.942;2024-01-10T15:58:23;0.90;99.60
9223;DHT22;7557;51.698;3.942;2024-01-10T16:00:51;1.00;99.50
9223;DHT22;7557;51.698;3.942;2024-01-10T16:03:18;1.00;99.70
9223;DHT22;7557;51.698;3.942;2024-01-10T16:05:46;1.20;99.90
9223;DHT22;7557;51.698;3.942;2024-01-10T16:08:15;1.20;99.80
9223;DHT22;7557;51.698;3.942;2024-01-10T16:10:42;1.30;99.70
9223;DHT22;7557;51.698;3.942;2024-01-10T16:13:10;1.40;99.80
9223;DHT22;7557;51.698;3.942;2024-01-10T16:15:39;1.30;99.80
9223;DHT22;7557;51.698;3.942;2024-01-10T16:18:09;1.30;99.80
9223;DHT22;7557;51.698;3.942;2024-01-10T16:20:36;1.30;99.70